sensor_id;sensor_type;location;lat;lon;timestamp;temperature;humidity
45765;DHT22;31474;45.332;10.230;2024-02-26T00:01:01;19.70;99.90
45765;DHT22;31474;45.332;10.230;2024-02-26T00:03:27;19.70;99.90
45765;DHT22;31474;45.332;10.230;2024-02-26T00:05:53;19.70;99.90
45765;DHT22;31474;45.332;10.230;2024-02-26T00:08:18;19.70;99.90
45765;DHT22;31474;45.332;10.230;2024-02-26T00:10:44;19.70;99.90
45765;DHT22;31474;45.332;10.230;2024-02-26T00:13:09;19.70;99.90
45765;DHT22;31474;45.332;10.230;2024-02-26T00:15:35;19.70;99.90
45765;DHT22;31474;45.332;10.230;2024-02-26T00:18:01;19.60;99.90
45765;DHT22;31474;45.332;10.230;2024-02-26T00:20:27;19.60;99.90
45765;DHT22;31474;45.332;10.230;2024-02-26T00:22:52;19.70;99.90
45765;DHT22;31474;45.332;10.230;2024-02-26T00:25:18;19.60;99.90
45765;DHT22;31474;45.332;10.230;2024-02-26T00:27:44;19.70;99.90
45765;DHT22;31474;45.332;10.230;2024-02-26T00:30:10;19.60;99.90
45765;DHT22;31474;45.332;10.230;2024-02-26T00:32:36;19.60;99.90
45765;DHT22;31474;45.332;10.230;2024-02-26T00:35:01;19.60;99.90
45765;DHT22;31474;45.332;10.230;2024-02-26T00:37:27;19.60;99.90
45765;DHT22;31474;45.332;10.230;2024-02-26T00:39:53;19.60;99.90
45765;DHT22;31474;45.332;10.230;2024-02-26T00:42:19;19.60;99.90
45765;DHT22;31474;45.332;10.230;2024-02-26T00:44:45;19.60;99.90
45765;DHT22;31474;45.332;10.230;2024-02-26T00:47:10;19.60;99.90
45765;DHT22;31474;45.332;10.230;2024-02-26T00:49:37;19.60;99.90
45765;DHT22;31474;45.332;10.230;2024-02-26T00:52:03;19.50;99.90
45765;DHT22;31474;45.332;10.230;2024-02-26T00:54:28;19.60;99.90
45765;DHT22;31474;45.332;10.230;2024-02-26T00:56:54;19.60;99.90
45765;DHT22;31474;45.332;10.230;2024-02-26T00:59:20;19.60;99.90
45765;DHT22;31474;45.332;10.230;2024-02-26T01:01:46;19.50;99.90
45765;DHT22;31474;45.332;10.230;2024-02-26T01:04:11;19.50;99.90
45765;DHT22;31474;45.332;10.230;2024-02-26T01:06:37;19.50;99.90
45765;DHT22;31474;45.332;10.230;2024-02-26T01:09:03;19.50;99.90
45765;DHT22;31474;45.332;10.230;2024-02-26T01:11:29;19.50;99.90
45765;DHT22;31474;45.332;10.230;2024-02-26T01:13:55;19.50;99.90
45765;DHT22;31474;45.332;10.230;2024-02-26T01:16:23;19.50;99.90
45765;DHT22;31474;45.332;10.230;2024-02-26T01:18:48;19.50;99.90
45765;DHT22;31474;45.332;10.230;2024-02-26T01:21:14;19.50;99.90
45765;DHT22;31474;45.332;10.230;2024-02-26T01:23:40;19.50;99.90
45765;DHT22;31474;45.332;10.230;2024-02-26T01:26:05;19.50;99.90
45765;DHT22;31474;45.332;10.230;2024-02-26T01:28:31;19.50;99.90
45765;DHT22;31474;45.332;10.230;2024-02-26T01:30:57;19.50;99.90
45765;DHT22;31474;45.332;10.230;2024-02-26T01:33:25;19.50;99.90
45765;DHT22;31474;45.332;10.230;2024-02-26T01:35:50;19.50;99.90
45765;DHT22;31474;45.332;10.230;2024-02-26T01:38:17;19.50;99.90
45765;DHT22;31474;45.332;10.230;2024-02-26T01:40:42;19.50;99.90
45765;DHT22;31474;45.332;10.230;2024-02-26T01:43:08;19.50;99.90
45765;DHT22;31474;45.332;10.230;2024-02-26T01:45:33;19.50;99.90
45765;DHT22;31474;45.332;10.230;2024-02-26T01:47:59;19.50;99.90
45765;DHT22;31474;45.332;10.230;2024-02-26T01:50:26;19.50;99.90
45765;DHT22;31474;45.332;10.230;2024-02-26T01:52:53;19.40;99.90
45765;DHT22;31474;45.332;10.230;2024-02-26T01:55:20;19.50;99.90
45765;DHT22;31474;45.332;10.230;2024-02-26T01:57:48;19.50;99.90
45765;DHT22;31474;45.332;10.230;2024-02-26T02:00:14;19.40;99.90
45765;DHT22;31474;45.332;10.230;2024-02-26T02:02:42;19.50;99.90
45765;DHT22;31474;45.332;10.230;2024-02-26T02:05:10;19.50;99.90
45765;DHT22;31474;45.332;10.230;2024-02-26T02:07:37;19.50;99.90
45765;DHT22;31474;45.332;10.230;2024-02-26T02:10:03;19.40;99.90
45765;DHT22;31474;45.332;10.230;2024-02-26T02:12:30;19.40;99.90
45765;DHT22;31474;45.332;10.230;2024-02-26T02:14:58;19.40;99.90
45765;DHT22;31474;45.332;10.230;2024-02-26T02:17:24;19.40;99.90
45765;DHT22;31474;45.332;10.230;2024-02-26T02:19:49;19.40;99.90
45765;DHT22;31474;45.332;10.230;2024-02-26T02:22:15;19.50;99.90
45765;DHT22;31474;45.332;10.230;2024-02-26T02:24:41;19.40;99.90
45765;DHT22;31474;45.332;10.230;2024-02-26T02:27:06;19.40;99.90
45765;DHT22;31474;45.332;10.230;2024-02-26T02:29:32;19.40;99.90
45765;DHT22;31474;45.332;10.230;2024-02-26T02:31:58;19.40;99.90
45765;DHT22;31474;45.332;10.230;2024-02-26T02:34:24;19.40;99.90
45765;DHT22;31474;45.332;10.230;2024-02-26T02:36:54;19.40;99.90
45765;DHT22;31474;45.332;10.230;2024-02-26T02:39:20;19.40;99.90
45765;DHT22;31474;45.332;10.230;2024-02-26T02:41:46;19.40;99.90
45765;DHT22;31474;45.332;10.230;2024-02-26T02:44:12;19.40;99.90
45765;DHT22;31474;45.332;10.230;2024-02-26T02:46:38;19.40;99.90
45765;DHT22;31474;45.332;10.230;2024-02-26T02:49:07;19.40;99.90
45765;DHT22;31474;45.332;10.230;2024-02-26T02:51:33;19.40;99.90
45765;DHT22;31474;45.332;10.230;2024-02-26T02:53:59;19.40;99.90
45765;DHT22;31474;45.332;10.230;2024-02-26T02:56:26;19.40;99.90
45765;DHT22;31474;45.332;10.230;2024-02-26T02:58:51;19.40;99.90
45765;DHT22;31474;45.332;10.230;2024-02-26T03:01:17;19.40;99.90
45765;DHT22;31474;45.332;10.230;2024-02-26T03:03:42;19.40;99.90
45765;DHT22;31474;45.332;10.230;2024-02-26T03:06:08;19.30;99.90
45765;DHT22;31474;45.332;10.230;2024-02-26T03:08:34;19.30;99.90
45765;DHT22;31474;45.332;10.230;2024-02-26T03:11:03;19.30;99.90
45765;DHT22;31474;45.332;10.230;2024-02-26T03:13:29;19.40;99.90
45765;DHT22;31474;45.332;10.230;2024-02-26T03:15:55;19.40;99.90
45765;DHT22;31474;45.332;10.230;2024-02-26T03:18:21;19.30;99.90
45765;DHT22;31474;45.332;10.230;2024-02-26T03:20:47;19.30;99.90
45765;DHT22;31474;45.332;10.230;2024-02-26T03:23:12;19.40;99.90
45765;DHT22;31474;45.332;10.230;2024-02-26T03:25:42;19.30;99.90
45765;DHT22;31474;45.332;10.230;2024-02-26T03:28:08;19.30;99.90
45765;DHT22;31474;45.332;10.230;2024-02-26T03:30:33;19.40;99.90
45765;DHT22;31474;45.332;10.230;2024-02-26T03:33:00;19.30;99.90
45765;DHT22;31474;45.332;10.230;2024-02-26T03:35:25;19.30;99.90
45765;DHT22;31474;45.332;10.230;2024-02-26T03:37:51;19.30;99.90
45765;DHT22;31474;45.332;10.230;2024-02-26T03:40:17;19.30;99.90
45765;DHT22;31474;45.332;10.230;2024-02-26T03:42:45;19.30;99.90
45765;DHT22;31474;45.332;10.230;2024-02-26T03:45:10;19.30;99.90
45765;DHT22;31474;45.332;10.230;2024-02-26T03:47:38;19.30;99.90
45765;DHT22;31474;45.332;10.230;2024-02-26T03:50:06;19.30;99.90
45765;DHT22;31474;45.332;10.230;2024-02-26T03:52:33;19.30;99.90
45765;DHT22;31474;45.332;10.230;2024-02-26T03:54:59;19.30;99.90
45765;DHT22;31474;45.332;10.230;2024-02-26T03:57:25;19.30;99.90
45765;DHT22;31474;45.332;10.230;2024-02-26T03:59:50;19.30;99.90
45765;DHT22;31474;45.332;10.230;2024-02-26T04:02:16;19.30;99.90
45765;DHT22;31474;45.332;10.230;2024-02-26T04:04:42;19.30;99.90
45765;DHT22;31474;45.332;10.230;2024-02-26T04:07:07;19.20;99.90
45765;DHT22;31474;45.332;10.230;2024-02-26T04:09:33;19.30;99.90
45765;DHT22;31474;45.332;10.230;2024-02-26T04:11:59;19.30;99.90
45765;DHT22;31474;45.332;10.230;2024-02-26T04:14:25;19.30;99.90
45765;DHT22;31474;45.332;10.230;2024-02-26T04:16:50;19.30;99.90
45765;DHT22;31474;45.332;10.230;2024-02-26T04:19:17;19.20;99.90
45765;DHT22;31474;45.332;10.230;2024-02-26T04:21:43;19.20;99.90
45765;DHT22;31474;45.332;10.230;2024-02-26T04:24:09;19.30;99.90
45765;DHT22;31474;45.332;10.230;2024-02-26T04:26:35;19.20;99.90
45765;DHT22;31474;45.332;10.230;2024-02-26T04:29:00;19.20;99.90
45765;DHT22;31474;45.332;10.230;2024-02-26T04:31:26;19.30;99.90
45765;DHT22;31474;45.332;10.230;2024-02-26T04:33:52;19.20;99.90
45765;DHT22;31474;45.332;10.230;2024-02-26T04:36:18;19.30;99.90
45765;DHT22;31474;45.332;10.230;2024-02-26T04:38:44;19.20;99.90
45765;DHT22;31474;45.332;10.230;2024-02-26T04:41:10;19.30;99.90
45765;DHT22;31474;45.332;10.230;2024-02-26T04:43:36;19.20;99.90
45765;DHT22;31474;45.332;10.230;2024-02-26T04:46:10;19.30;99.90
45765;DHT22;31474;45.332;10.230;2024-02-26T04:48:36;19.20;99.90
45765;DHT22;31474;45.332;10.230;2024-02-26T04:51:03;19.20;99.90
45765;DHT22;31474;45.332;10.230;2024-02-26T04:53:29;19.20;99.90
45765;DHT22;31474;45.332;10.230;2024-02-26T04:55:55;19.20;99.90
45765;DHT22;31474;45.332;10.230;2024-02-26T04:58:21;19.20;99.90
45765;DHT22;31474;45.332;10.230;2024-02-26T05:00:46;19.20;99.90
45765;DHT22;31474;45.332;10.230;2024-02-26T05:03:12;19.20;99.90
45765;DHT22;31474;45.332;10.230;2024-02-26T05:05:42;19.20;99.90
45765;DHT22;31474;45.332;10.230;2024-02-26T05:08:08;19.20;99.90
45765;DHT22;31474;45.332;10.230;2024-02-26T05:10:34;19.20;99.90
45765;DHT22;31474;45.332;10.230;2024-02-26T05:13:04;19.20;99.90
45765;DHT22;31474;45.332;10.230;2024-02-26T05:15:30;19.20;99.90
45765;DHT22;31474;45.332;10.230;2024-02-26T05:20:23;19.20;99.90
45765;DHT22;31474;45.332;10.230;2024-02-26T05:22:49;19.20;99.90
45765;DHT22;31474;45.332;10.230;2024-02-26T05:25:16;19.20;99.90
45765;DHT22;31474;45.332;10.230;2024-02-26T05:30:08;19.20;99.90
45765;DHT22;31474;45.332;10.230;2024-02-26T05:32:34;19.20;99.90
45765;DHT22;31474;45.332;10.230;2024-02-26T05:34:59;19.20;99.90
45765;DHT22;31474;45.332;10.230;2024-02-26T05:37:25;19.20;99.90
45765;DHT22;31474;45.332;10.230;2024-02-26T05:39:50;19.20;99.90
45765;DHT22;31474;45.332;10.230;2024-02-26T05:42:16;19.20;99.90
45765;DHT22;31474;45.332;10.230;2024-02-26T05:44:42;19.20;99.90
45765;DHT22;31474;45.332;10.230;2024-02-26T05:47:07;19.20;99.90
45765;DHT22;31474;45.332;10.230;2024-02-26T05:49:33;19.20;99.90
45765;DHT22;31474;45.332;10.230;2024-02-26T05:51:59;19.20;99.90
45765;DHT22;31474;45.332;10.230;2024-02-26T05:54:24;19.20;99.90
45765;DHT22;31474;45.332;10.230;2024-02-26T05:56:50;19.20;99.90
45765;DHT22;31474;45.332;10.230;2024-02-26T05:59:16;19.10;99.90
45765;DHT22;31474;45.332;10.230;2024-02-26T06:01:42;19.20;99.90
45765;DHT22;31474;45.332;10.230;2024-02-26T06:04:07;19.20;99.90
45765;DHT22;31474;45.332;10.230;2024-02-26T06:06:33;19.20;99.90
45765;DHT22;31474;45.332;10.230;2024-02-26T06:08:59;19.10;99.90
45765;DHT22;31474;45.332;10.230;2024-02-26T06:11:24;19.10;99.90
45765;DHT22;31474;45.332;10.230;2024-02-26T06:13:50;19.00;99.90
45765;DHT22;31474;45.332;10.230;2024-02-26T06:16:15;19.10;99.90
45765;DHT22;31474;45.332;10.230;2024-02-26T06:18:41;19.00;99.90
45765;DHT22;31474;45.332;10.230;2024-02-26T06:21:10;19.00;99.90
45765;DHT22;31474;45.332;10.230;2024-02-26T06:23:37;19.00;99.90
45765;DHT22;31474;45.332;10.230;2024-02-26T06:26:02;19.00;99.90
45765;DHT22;31474;45.332;10.230;2024-02-26T06:28:28;19.00;99.90
45765;DHT22;31474;45.332;10.230;2024-02-26T06:30:56;19.00;99.90
45765;DHT22;31474;45.332;10.230;2024-02-26T06:33:21;19.00;99.90
45765;DHT22;31474;45.332;10.230;2024-02-26T06:35:47;19.00;99.90
45765;DHT22;31474;45.332;10.230;2024-02-26T06:38:12;19.00;99.90
45765;DHT22;31474;45.332;10.230;2024-02-26T06:40:39;19.00;99.90
45765;DHT22;31474;45.332;10.230;2024-02-26T06:43:05;19.00;99.90
45765;DHT22;31474;45.332;10.230;2024-02-26T06:45:31;19.10;99.90
45765;DHT22;31474;45.332;10.230;2024-02-26T06:47:57;19.10;99.90
45765;DHT22;31474;45.332;10.230;2024-02-26T06:50:22;19.10;99.90
45765;DHT22;31474;45.332;10.230;2024-02-26T06:52:48;19.10;99.90
45765;DHT22;31474;45.332;10.230;2024-02-26T06:55:14;19.00;99.90
45765;DHT22;31474;45.332;10.230;2024-02-26T06:57:40;19.10;99.90
45765;DHT22;31474;45.332;10.230;2024-02-26T07:00:06;19.00;99.90
45765;DHT22;31474;45.332;10.230;2024-02-26T07:02:31;19.10;99.90
45765;DHT22;31474;45.332;10.230;2024-02-26T07:04:57;19.10;99.90
45765;DHT22;31474;45.332;10.230;2024-02-26T07:07:24;19.00;99.90
45765;DHT22;31474;45.332;10.230;2024-02-26T07:09:50;19.10;99.90
45765;DHT22;31474;45.332;10.230;2024-02-26T07:12:15;19.10;99.90
45765;DHT22;31474;45.332;10.230;2024-02-26T07:14:42;19.00;99.90
45765;DHT22;31474;45.332;10.230;2024-02-26T07:17:08;19.10;99.90
45765;DHT22;31474;45.332;10.230;2024-02-26T07:19:34;19.00;99.90
45765;DHT22;31474;45.332;10.230;2024-02-26T07:22:00;19.10;99.90
45765;DHT22;31474;45.332;10.230;2024-02-26T07:24:27;19.00;99.90
45765;DHT22;31474;45.332;10.230;2024-02-26T07:26:53;19.00;99.90
45765;DHT22;31474;45.332;10.230;2024-02-26T07:29:20;19.00;99.90
45765;DHT22;31474;45.332;10.230;2024-02-26T07:31:47;19.10;99.90
45765;DHT22;31474;45.332;10.230;2024-02-26T07:34:12;19.10;99.90
45765;DHT22;31474;45.332;10.230;2024-02-26T07:36:39;19.00;99.90
45765;DHT22;31474;45.332;10.230;2024-02-26T07:39:05;19.00;99.90
45765;DHT22;31474;45.332;10.230;2024-02-26T07:41:30;19.00;99.90
45765;DHT22;31474;45.332;10.230;2024-02-26T07:43:56;19.10;99.90
45765;DHT22;31474;45.332;10.230;2024-02-26T07:46:22;19.10;99.90
45765;DHT22;31474;45.332;10.230;2024-02-26T07:48:47;19.00;99.90
45765;DHT22;31474;45.332;10.230;2024-02-26T07:51:13;19.10;99.90
45765;DHT22;31474;45.332;10.230;2024-02-26T07:53:42;19.00;99.90
45765;DHT22;31474;45.332;10.230;2024-02-26T07:56:09;19.00;99.90
45765;DHT22;31474;45.332;10.230;2024-02-26T07:58:35;19.10;99.90
45765;DHT22;31474;45.332;10.230;2024-02-26T08:01:01;19.00;99.90
45765;DHT22;31474;45.332;10.230;2024-02-26T08:03:26;19.00;99.90
45765;DHT22;31474;45.332;10.230;2024-02-26T08:05:52;19.00;99.90
45765;DHT22;31474;45.332;10.230;2024-02-26T08:08:18;19.10;99.90
45765;DHT22;31474;45.332;10.230;2024-02-26T08:10:44;19.00;99.90
45765;DHT22;31474;45.332;10.230;2024-02-26T08:13:09;19.00;99.90
45765;DHT22;31474;45.332;10.230;2024-02-26T08:15:35;19.00;99.90
45765;DHT22;31474;45.332;10.230;2024-02-26T08:18:03;19.00;99.90
45765;DHT22;31474;45.332;10.230;2024-02-26T08:20:29;19.00;99.90
45765;DHT22;31474;45.332;10.230;2024-02-26T08:22:55;19.00;99.90
45765;DHT22;31474;45.332;10.230;2024-02-26T08:25:21;19.00;99.90
45765;DHT22;31474;45.332;10.230;2024-02-26T08:27:47;19.00;99.90
45765;DHT22;31474;45.332;10.230;2024-02-26T08:30:14;19.00;99.90
45765;DHT22;31474;45.332;10.230;2024-02-26T08:32:42;19.00;99.90
45765;DHT22;31474;45.332;10.230;2024-02-26T08:35:08;19.00;99.90
45765;DHT22;31474;45.332;10.230;2024-02-26T08:37:34;19.00;99.90
45765;DHT22;31474;45.332;10.230;2024-02-26T08:39:59;19.00;99.90
45765;DHT22;31474;45.332;10.230;2024-02-26T08:42:25;19.00;99.90
45765;DHT22;31474;45.332;10.230;2024-02-26T08:44:51;19.00;99.90
45765;DHT22;31474;45.332;10.230;2024-02-26T08:47:16;19.00;99.90
45765;DHT22;31474;45.332;10.230;2024-02-26T08:49:43;19.00;99.90
45765;DHT22;31474;45.332;10.230;2024-02-26T08:52:09;19.00;99.90
45765;DHT22;31474;45.332;10.230;2024-02-26T08:54:35;19.00;99.90
45765;DHT22;31474;45.332;10.230;2024-02-26T08:57:00;19.00;99.90
45765;DHT22;31474;45.332;10.230;2024-02-26T08:59:26;19.00;99.90
45765;DHT22;31474;45.332;10.230;2024-02-26T09:01:51;19.00;99.90
45765;DHT22;31474;45.332;10.230;2024-02-26T09:04:17;19.00;99.90
45765;DHT22;31474;45.332;10.230;2024-02-26T09:06:43;19.00;99.90
45765;DHT22;31474;45.332;10.230;2024-02-26T09:09:08;19.00;99.90
45765;DHT22;31474;45.332;10.230;2024-02-26T09:11:34;19.00;99.90
45765;DHT22;31474;45.332;10.230;2024-02-26T09:14:00;19.00;99.90
45765;DHT22;31474;45.332;10.230;2024-02-26T09:16:25;19.00;99.90
45765;DHT22;31474;45.332;10.230;2024-02-26T09:18:51;19.00;99.90
45765;DHT22;31474;45.332;10.230;2024-02-26T09:21:16;19.00;99.90
45765;DHT22;31474;45.332;10.230;2024-02-26T09:23:49;19.00;99.90
45765;DHT22;31474;45.332;10.230;2024-02-26T09:26:15;19.00;99.90
45765;DHT22;31474;45.332;10.230;2024-02-26T09:28:40;19.00;99.90
45765;DHT22;31474;45.332;10.230;2024-02-26T09:31:06;19.00;99.90
45765;DHT22;31474;45.332;10.230;2024-02-26T09:33:32;19.00;99.90
45765;DHT22;31474;45.332;10.230;2024-02-26T09:35:58;19.00;99.90
45765;DHT22;31474;45.332;10.230;2024-02-26T09:38:25;19.00;99.90
45765;DHT22;31474;45.332;10.230;2024-02-26T09:40:51;19.00;99.90
45765;DHT22;31474;45.332;10.230;2024-02-26T09:43:17;19.00;99.90
45765;DHT22;31474;45.332;10.230;2024-02-26T09:45:45;18.90;99.90
45765;DHT22;31474;45.332;10.230;2024-02-26T09:48:12;19.00;99.90
45765;DHT22;31474;45.332;10.230;2024-02-26T09:50:41;19.00;99.90
45765;DHT22;31474;45.332;10.230;2024-02-26T09:53:08;19.00;99.90
45765;DHT22;31474;45.332;10.230;2024-02-26T09:55:36;19.00;99.90
45765;DHT22;31474;45.332;10.230;2024-02-26T09:58:02;19.00;99.90
45765;DHT22;31474;45.332;10.230;2024-02-26T10:00:31;19.00;99.90
45765;DHT22;31474;45.332;10.230;2024-02-26T10:03:04;19.00;99.90
45765;DHT22;31474;45.332;10.230;2024-02-26T10:05:31;18.90;99.90
45765;DHT22;31474;45.332;10.230;2024-02-26T10:07:59;18.90;99.90
45765;DHT22;31474;45.332;10.230;2024-02-26T10:10:28;19.00;99.90
45765;DHT22;31474;45.332;10.230;2024-02-26T10:12:54;18.90;99.90
45765;DHT22;31474;45.332;10.230;2024-02-26T10:15:20;18.90;99.90
45765;DHT22;31474;45.332;10.230;2024-02-26T10:17:46;18.90;99.90
45765;DHT22;31474;45.332;10.230;2024-02-26T10:20:17;18.90;99.90
45765;DHT22;31474;45.332;10.230;2024-02-26T10:22:44;18.90;99.90
45765;DHT22;31474;45.332;10.230;2024-02-26T10:25:09;18.90;99.90
45765;DHT22;31474;45.332;10.230;2024-02-26T10:27:35;18.90;99.90
45765;DHT22;31474;45.332;10.230;2024-02-26T10:30:26;18.90;99.90
45765;DHT22;31474;45.332;10.230;2024-02-26T10:32:52;19.00;99.90
45765;DHT22;31474;45.332;10.230;2024-02-26T10:35:18;19.00;99.90
45765;DHT22;31474;45.332;10.230;2024-02-26T10:37:44;18.90;99.90
45765;DHT22;31474;45.332;10.230;2024-02-26T10:40:11;18.90;99.90
45765;DHT22;31474;45.332;10.230;2024-02-26T10:42:37;18.90;99.90
45765;DHT22;31474;45.332;10.230;2024-02-26T10:45:06;19.00;99.90
45765;DHT22;31474;45.332;10.230;2024-02-26T10:47:33;19.00;99.90
45765;DHT22;31474;45.332;10.230;2024-02-26T10:50:00;18.90;99.90
45765;DHT22;31474;45.332;10.230;2024-02-26T10:52:27;18.90;99.90
45765;DHT22;31474;45.332;10.230;2024-02-26T10:54:56;18.90;99.90
45765;DHT22;31474;45.332;10.230;2024-02-26T10:57:26;18.90;99.90
45765;DHT22;31474;45.332;10.230;2024-02-26T10:59:53;18.90;99.90
45765;DHT22;31474;45.332;10.230;2024-02-26T11:02:20;18.90;99.90
45765;DHT22;31474;45.332;10.230;2024-02-26T11:04:46;18.90;99.90
45765;DHT22;31474;45.332;10.230;2024-02-26T11:07:13;18.90;99.90
45765;DHT22;31474;45.332;10.230;2024-02-26T11:09:40;18.90;99.90
45765;DHT22;31474;45.332;10.230;2024-02-26T11:12:11;18.90;99.90
45765;DHT22;31474;45.332;10.230;2024-02-26T11:14:40;18.90;99.90
45765;DHT22;31474;45.332;10.230;2024-02-26T11:17:08;18.90;99.90
45765;DHT22;31474;45.332;10.230;2024-02-26T11:19:35;18.90;99.90
45765;DHT22;31474;45.332;10.230;2024-02-26T11:22:02;18.90;99.90
45765;DHT22;31474;45.332;10.230;2024-02-26T11:24:28;18.90;99.90
45765;DHT22;31474;45.332;10.230;2024-02-26T11:26:58;18.90;99.90
45765;DHT22;31474;45.332;10.230;2024-02-26T11:29:47;18.90;99.90
45765;DHT22;31474;45.332;10.230;2024-02-26T11:32:14;18.90;99.90
45765;DHT22;31474;45.332;10.230;2024-02-26T11:34:40;18.90;99.90
45765;DHT22;31474;45.332;10.230;2024-02-26T11:37:14;18.90;99.90
45765;DHT22;31474;45.332;10.230;2024-02-26T11:39:44;18.80;99.90
45765;DHT22;31474;45.332;10.230;2024-02-26T11:42:15;18.90;99.90
45765;DHT22;31474;45.332;10.230;2024-02-26T11:44:41;18.90;99.90
45765;DHT22;31474;45.332;10.230;2024-02-26T11:47:13;18.90;99.90
45765;DHT22;31474;45.332;10.230;2024-02-26T11:49:39;18.90;99.90
45765;DHT22;31474;45.332;10.230;2024-02-26T11:52:07;18.90;99.90
45765;DHT22;31474;45.332;10.230;2024-02-26T11:54:52;18.80;99.90
45765;DHT22;31474;45.332;10.230;2024-02-26T11:57:26;18.80;99.90
45765;DHT22;31474;45.332;10.230;2024-02-26T11:59:53;18.80;99.90
45765;DHT22;31474;45.332;10.230;2024-02-26T12:05:09;18.80;99.90
45765;DHT22;31474;45.332;10.230;2024-02-26T12:07:39;18.80;99.90
45765;DHT22;31474;45.332;10.230;2024-02-26T12:10:32;18.80;99.90
45765;DHT22;31474;45.332;10.230;2024-02-26T12:13:14;18.80;99.90
45765;DHT22;31474;45.332;10.230;2024-02-26T12:15:44;18.80;99.90
45765;DHT22;31474;45.332;10.230;2024-02-26T12:18:16;18.80;99.90
45765;DHT22;31474;45.332;10.230;2024-02-26T12:20:42;18.80;99.90
45765;DHT22;31474;45.332;10.230;2024-02-26T12:23:14;18.80;99.90
45765;DHT22;31474;45.332;10.230;2024-02-26T12:25:40;18.80;99.90
45765;DHT22;31474;45.332;10.230;2024-02-26T12:28:07;18.80;99.90
45765;DHT22;31474;45.332;10.230;2024-02-26T12:30:33;18.80;99.90
45765;DHT22;31474;45.332;10.230;2024-02-26T12:33:00;18.80;99.90
45765;DHT22;31474;45.332;10.230;2024-02-26T12:35:29;18.80;99.90
45765;DHT22;31474;45.332;10.230;2024-02-26T12:37:58;18.80;99.90
45765;DHT22;31474;45.332;10.230;2024-02-26T12:40:24;18.80;99.90
45765;DHT22;31474;45.332;10.230;2024-02-26T12:42:49;18.90;99.90
45765;DHT22;31474;45.332;10.230;2024-02-26T12:45:16;18.90;99.90
45765;DHT22;31474;45.332;10.230;2024-02-26T12:47:45;18.90;99.90
45765;DHT22;31474;45.332;10.230;2024-02-26T12:50:12;18.80;99.90
45765;DHT22;31474;45.332;10.230;2024-02-26T12:52:45;18.80;99.90
45765;DHT22;31474;45.332;10.230;2024-02-26T12:55:11;18.90;99.90
45765;DHT22;31474;45.332;10.230;2024-02-26T12:57:39;18.90;99.90
45765;DHT22;31474;45.332;10.230;2024-02-26T13:00:06;18.90;99.90
45765;DHT22;31474;45.332;10.230;2024-02-26T13:02:35;18.90;99.90
45765;DHT22;31474;45.332;10.230;2024-02-26T13:05:03;19.00;99.90
45765;DHT22;31474;45.332;10.230;2024-02-26T13:07:29;19.00;99.90
45765;DHT22;31474;45.332;10.230;2024-02-26T13:09:55;19.00;99.90
45765;DHT22;31474;45.332;10.230;2024-02-26T13:12:21;19.10;99.90
45765;DHT22;31474;45.332;10.230;2024-02-26T13:14:47;19.10;99.90
45765;DHT22;31474;45.332;10.230;2024-02-26T13:17:13;19.10;99.90
45765;DHT22;31474;45.332;10.230;2024-02-26T13:19:49;19.20;99.90
45765;DHT22;31474;45.332;10.230;2024-02-26T13:22:15;19.10;99.90
45765;DHT22;31474;45.332;10.230;2024-02-26T13:24:42;19.10;99.90
45765;DHT22;31474;45.332;10.230;2024-02-26T13:27:08;19.10;99.90
45765;DHT22;31474;45.332;10.230;2024-02-26T13:29:34;19.20;99.90
45765;DHT22;31474;45.332;10.230;2024-02-26T13:31:59;19.20;99.90
45765;DHT22;31474;45.332;10.230;2024-02-26T13:34:26;19.20;99.90
45765;DHT22;31474;45.332;10.230;2024-02-26T13:36:53;19.20;99.90
45765;DHT22;31474;45.332;10.230;2024-02-26T13:39:26;19.30;99.90
45765;DHT22;31474;45.332;10.230;2024-02-26T13:41:52;19.30;99.90
45765;DHT22;31474;45.332;10.230;2024-02-26T13:44:20;19.30;99.90
45765;DHT22;31474;45.332;10.230;2024-02-26T13:46:46;19.30;99.90
45765;DHT22;31474;45.332;10.230;2024-02-26T13:49:12;19.30;99.90
45765;DHT22;31474;45.332;10.230;2024-02-26T13:51:39;19.30;99.90
45765;DHT22;31474;45.332;10.230;2024-02-26T13:54:05;19.40;99.90
45765;DHT22;31474;45.332;10.230;2024-02-26T13:56:31;19.40;99.90
45765;DHT22;31474;45.332;10.230;2024-02-26T13:58:57;19.40;99.90
45765;DHT22;31474;45.332;10.230;2024-02-26T14:01:24;19.40;99.90
45765;DHT22;31474;45.332;10.230;2024-02-26T14:03:49;19.40;99.90
45765;DHT22;31474;45.332;10.230;2024-02-26T14:06:15;19.40;99.90
45765;DHT22;31474;45.332;10.230;2024-02-26T14:08:41;19.40;99.90
45765;DHT22;31474;45.332;10.230;2024-02-26T14:11:07;19.40;99.90
45765;DHT22;31474;45.332;10.230;2024-02-26T14:13:32;19.40;99.90
45765;DHT22;31474;45.332;10.230;2024-02-26T14:15:58;19.40;99.90
45765;DHT22;31474;45.332;10.230;2024-02-26T14:18:24;19.40;99.90
45765;DHT22;31474;45.332;10.230;2024-02-26T14:20:50;19.50;99.90
45765;DHT22;31474;45.332;10.230;2024-02-26T14:23:15;19.50;99.90
45765;DHT22;31474;45.332;10.230;2024-02-26T14:25:41;19.50;99.90
45765;DHT22;31474;45.332;10.230;2024-02-26T14:28:07;19.50;99.90
45765;DHT22;31474;45.332;10.230;2024-02-26T14:30:32;19.50;99.90
45765;DHT22;31474;45.332;10.230;2024-02-26T14:32:58;19.50;99.90
45765;DHT22;31474;45.332;10.230;2024-02-26T14:35:24;19.50;99.90
45765;DHT22;31474;45.332;10.230;2024-02-26T14:37:50;19.50;99.90
45765;DHT22;31474;45.332;10.230;2024-02-26T14:40:17;19.50;99.90
45765;DHT22;31474;45.332;10.230;2024-02-26T14:42:44;19.50;99.90
45765;DHT22;31474;45.332;10.230;2024-02-26T14:45:10;19.50;99.90
45765;DHT22;31474;45.332;10.230;2024-02-26T14:47:37;19.60;99.90
45765;DHT22;31474;45.332;10.230;2024-02-26T14:50:03;19.60;99.90
45765;DHT22;31474;45.332;10.230;2024-02-26T14:52:29;19.60;99.90
45765;DHT22;31474;45.332;10.230;2024-02-26T14:54:55;19.60;99.90
45765;DHT22;31474;45.332;10.230;2024-02-26T14:57:21;19.60;99.90
45765;DHT22;31474;45.332;10.230;2024-02-26T14:59:46;19.70;99.90
45765;DHT22;31474;45.332;10.230;2024-02-26T15:02:13;19.70;99.90
45765;DHT22;31474;45.332;10.230;2024-02-26T15:04:39;19.60;99.90
45765;DHT22;31474;45.332;10.230;2024-02-26T15:07:05;19.60;99.90
45765;DHT22;31474;45.332;10.230;2024-02-26T15:09:31;19.60;99.90
45765;DHT22;31474;45.332;10.230;2024-02-26T15:11:56;19.70;99.90
45765;DHT22;31474;45.332;10.230;2024-02-26T15:14:23;19.70;99.90
45765;DHT22;31474;45.332;10.230;2024-02-26T15:16:49;19.70;99.90
45765;DHT22;31474;45.332;10.230;2024-02-26T15:19:16;19.70;99.90